Grove, United Kingdom
Current Conditions -  °F | °C
As of 10:50 PM on Wednesday 26 Nov 2014 (Local Time) from EGVN Reporting Station
Light Rain Light Rain  
Wind Chill:   Ceiling: 200
Heat Index:   Visibility: 1.2mi
Dew Point:   Wind: 2mph
Humidity: 100%   Direction: 320°NW
Pressure: 29.74"   Gusts: NA
Location:  51.61°N, 1.42°W
Report Text: EGVN 262250Z 32002KT 2000 -RA SCT001 BKN002 OVC020 07/07 Q1007 RED TEMPO 0800 SCT002 RED
Loading
Personal Weather Stations






























Interactive Weather Map New forecast layout! Learn more

10-Day Weather Forecast

Advertisements
Track Severe Weather on mobile